Hlavní strana
METAR-TAF:

METAR-TAF

Letiště :

Berbérati, Středoafrická republika

zeměpisná šířka: 04-15N, zeměpisná délka: 015-48E, výška: 582 m

Aktuální stav počasí

Zpráva byla vytvořena před 14 hodinami a 18 minutami, v 10:00 UTC
Jihovýchodní vítr 8 kt
Teplota 24°C
Vlhkost vzduchu 89%
Tlak 1015 hPa
Viditelnost 10 km a více
Polojasno ve výšce 2500 ft

METAR: FEFT 121000Z 14008KT 9999 SCT025 24/22 Q1015

Čas: 01:18 (00:18 UTC)


TAF: chybějící

Stav a předpovědi počasí z více než 4 000 letišť (zprávy METAR a TAF).

Červené a žluté tečky na mapě představují dostupné meteorologické stanice.

Když kurzor umístíte na tečku, zobrazí se název stanice.

Pak kliknutím zobrazíte stav a předpověď počasí.

Chcete-li změnit mapu, kliknutím na zelené tlačítko se znaménkem +mapu přiblížíte, kliknutím na zelené tlačítko se znaménkem – mapu oddálíte a kliknutím na zelené šipky přejdete na sousední mapy.


METAR-TAF: